Time;durP1;ratioP1;P1;durP2;ratioP2;P2;SDS_P1;SDS_P2;PMS_P1;PMS_P2;Temp;Humidity;BMP_temperature;BMP_pressure;BME280_temperature;BME280_humidity;BME280_pressure;Samples;Min_cycle;Max_cycle;Signal;HPM_P1;HPM_P2
2023/09/30 00:03:00;;;;;;;15.23;2.45;;;;;;;13.51;100.00;102077.94;6206033;28;20066;-74
2023/09/30 00:06:02;;;;;;;13.18;3.25;;;;;;;13.54;100.00;102067.22;6205681;28;20054;-74
2023/09/30 00:09:05;;;;;;;9.10;2.78;;;;;;;13.50;100.00;102071.78;6205686;28;20047;-74
2023/09/30 00:12:08;;;;;;;9.70;2.20;;;;;;;13.43;100.00;102076.47;6205747;28;20137;-74
2023/09/30 00:15:10;;;;;;;12.40;3.05;;;;;;;13.42;100.00;102095.03;6205456;28;20522;-74
2023/09/30 00:18:13;;;;;;;9.50;2.10;;;;;;;13.39;100.00;102082.81;6205649;28;20057;-74
2023/09/30 00:21:15;;;;;;;9.68;2.55;;;;;;;13.40;100.00;102081.91;6205240;28;20057;-74
2023/09/30 00:24:16;;;;;;;10.50;2.28;;;;;;;13.36;100.00;102082.09;6205319;28;20101;-75
2023/09/30 00:27:19;;;;;;;9.85;2.20;;;;;;;13.34;100.00;102089.22;6205212;28;20047;-74
2023/09/30 00:30:21;;;;;;;14.93;2.67;;;;;;;13.33;100.00;102091.00;6204805;28;20561;-74
2023/09/30 00:33:23;;;;;;;9.27;2.47;;;;;;;13.23;100.00;102091.47;6205039;28;20074;-74
2023/09/30 00:36:24;;;;;;;9.18;2.60;;;;;;;13.24;100.00;102098.47;6205366;28;20054;-74
2023/09/30 00:39:29;;;;;;;16.65;2.72;;;;;;;13.17;100.00;102097.81;6204712;28;20050;-74
2023/09/30 00:42:32;;;;;;;8.88;3.15;;;;;;;13.11;100.00;102090.16;6204791;28;20366;-74
2023/09/30 00:45:34;;;;;;;6.38;2.25;;;;;;;13.10;100.00;102078.75;6204688;28;20054;-74
2023/09/30 00:48:36;;;;;;;16.58;3.22;;;;;;;13.12;100.00;102079.53;6204856;28;20065;-74
2023/09/30 00:51:38;;;;;;;9.85;2.25;;;;;;;13.10;100.00;102081.41;6202522;28;20454;-74
2023/09/30 00:54:40;;;;;;;14.18;2.85;;;;;;;13.11;100.00;102079.63;6201881;28;20054;-74
2023/09/30 00:57:44;;;;;;;7.47;2.30;;;;;;;13.05;100.00;102083.38;6204508;28;20054;-74
2023/09/30 01:00:45;;;;;;;7.88;2.30;;;;;;;13.03;100.00;102085.22;6204167;28;20061;-73
2023/09/30 01:03:47;;;;;;;9.27;2.35;;;;;;;12.97;100.00;102082.84;6204562;28;20050;-73
2023/09/30 01:06:48;;;;;;;15.25;2.50;;;;;;;12.94;100.00;102088.22;6204377;28;20042;-73
2023/09/30 01:09:50;;;;;;;13.45;3.20;;;;;;;12.96;100.00;102086.41;6204001;28;20050;-73
2023/09/30 01:12:53;;;;;;;8.75;2.63;;;;;;;12.95;100.00;102103.16;6204165;28;20057;-74
2023/09/30 01:15:54;;;;;;;12.23;2.20;;;;;;;12.91;100.00;102104.22;6204177;28;20346;-74
2023/09/30 01:18:56;;;;;;;15.77;2.40;;;;;;;12.91;100.00;102109.50;6203931;28;20050;-74
2023/09/30 01:21:59;;;;;;;14.07;2.60;;;;;;;12.87;100.00;102108.75;6203799;28;20369;-74
2023/09/30 01:25:01;;;;;;;12.77;2.40;;;;;;;12.82;100.00;102113.34;6203800;28;20141;-73
2023/09/30 01:28:06;;;;;;;11.50;2.90;;;;;;;12.79;100.00;102116.13;6204039;28;20054;-73
2023/09/30 01:31:08;;;;;;;9.65;2.42;;;;;;;12.78;100.00;102111.75;6203621;28;20054;-75
2023/09/30 01:34:10;;;;;;;11.25;2.65;;;;;;;12.78;100.00;102122.31;6203638;28;20335;-73
2023/09/30 01:37:13;;;;;;;13.63;2.90;;;;;;;12.78;100.00;102116.19;6203628;28;20378;-74
2023/09/30 01:40:14;;;;;;;11.70;2.35;;;;;;;12.78;100.00;102110.91;6203157;28;20054;-74
2023/09/30 01:43:16;;;;;;;12.13;2.35;;;;;;;12.72;100.00;102105.84;6203740;28;20050;-74
2023/09/30 01:46:17;;;;;;;14.95;2.85;;;;;;;12.69;100.00;102107.72;6203283;28;20043;-74
2023/09/30 01:49:19;;;;;;;12.55;2.97;;;;;;;12.67;100.00;102103.41;6203317;28;20050;-74
2023/09/30 01:52:21;;;;;;;9.45;2.78;;;;;;;12.63;100.00;102110.63;6245949;23;20662;-73
2023/09/30 01:55:23;;;;;;;7.40;2.25;;;;;;;12.67;100.00;102112.22;6235844;28;20124;-72
2023/09/30 01:58:24;;;;;;;14.32;2.85;;;;;;;12.63;100.00;102123.81;6251913;28;20046;-71
2023/09/30 02:01:26;;;;;;;6.07;2.47;;;;;;;12.63;100.00;102107.13;6251881;28;20049;-71
2023/09/30 02:04:29;;;;;;;11.23;2.78;;;;;;;12.64;100.00;102095.66;6251927;28;20053;-71
2023/09/30 02:07:31;;;;;;;6.68;2.50;;;;;;;12.64;100.00;102100.91;6251905;28;20042;-71
2023/09/30 02:10:34;;;;;;;13.63;3.13;;;;;;;12.64;100.00;102098.28;6251598;28;20053;-71
2023/09/30 02:13:35;;;;;;;9.63;2.85;;;;;;;12.66;100.00;102110.47;6251590;28;20163;-71
2023/09/30 02:16:38;;;;;;;18.80;3.50;;;;;;;12.65;100.00;102115.81;6251664;28;20042;-71
2023/09/30 02:19:40;;;;;;;9.60;2.85;;;;;;;12.60;100.00;102116.00;6250730;28;20065;-72
2023/09/30 02:22:44;;;;;;;9.77;2.67;;;;;;;12.59;100.00;102114.28;6251100;28;20449;-72
2023/09/30 02:25:45;;;;;;;13.05;3.38;;;;;;;12.61;100.00;102127.41;6263056;28;20044;-71
2023/09/30 02:28:47;;;;;;;10.52;3.13;;;;;;;12.62;100.00;102139.66;6260713;28;20480;-72
2023/09/30 02:31:48;;;;;;;10.43;3.03;;;;;;;12.62;100.00;102151.06;6261753;28;20385;-71
2023/09/30 02:34:50;;;;;;;13.07;3.28;;;;;;;12.55;100.00;102141.69;6274840;28;20056;-72
2023/09/30 02:37:54;;;;;;;10.30;2.67;;;;;;;12.56;100.00;102146.03;6275930;28;20053;-72
2023/09/30 02:40:55;;;;;;;14.88;4.25;;;;;;;12.46;100.00;102138.56;6264257;28;20216;-71
2023/09/30 02:43:56;;;;;;;9.90;2.88;;;;;;;12.46;100.00;102136.78;6274399;28;20057;-74
2023/09/30 02:46:58;;;;;;;10.98;3.05;;;;;;;12.43;100.00;102142.16;6275501;28;20451;-73
2023/09/30 02:50:00;;;;;;;10.38;3.25;;;;;;;12.43;100.00;102132.47;6265865;28;20056;-74
2023/09/30 02:53:03;;;;;;;13.90;2.75;;;;;;;12.47;100.00;102142.91;6251218;28;20053;-74
2023/09/30 02:56:04;;;;;;;8.68;3.17;;;;;;;12.41;100.00;102142.22;6251002;28;20050;-73
2023/09/30 02:59:07;;;;;;;15.35;3.90;;;;;;;12.46;100.00;102130.66;6250371;28;20049;-73
2023/09/30 03:02:08;;;;;;;12.40;2.40;;;;;;;12.32;100.00;102129.41;6260026;28;20053;-73
2023/09/30 03:05:10;;;;;;;10.85;2.67;;;;;;;12.35;100.00;102138.97;6275314;28;20045;-73
2023/09/30 03:08:13;;;;;;;18.80;4.53;;;;;;;12.37;100.00;102143.28;6275582;28;20049;-73
2023/09/30 03:11:14;;;;;;;9.00;2.95;;;;;;;12.39;100.00;102157.25;6275052;28;20056;-73
2023/09/30 03:14:15;;;;;;;10.98;3.38;;;;;;;12.42;100.00;102153.63;6270028;28;20359;-74
2023/09/30 03:17:17;;;;;;;11.52;2.30;;;;;;;12.44;100.00;102144.75;6269172;28;20086;-72
2023/09/30 03:20:20;;;;;;;10.55;2.28;;;;;;;12.47;100.00;102141.13;6264473;28;20099;-74
2023/09/30 03:23:26;;;;;;;14.73;2.55;;;;;;;12.41;100.00;102142.22;6264753;28;20053;-73
2023/09/30 03:26:29;;;;;;;13.05;3.17;;;;;;;12.37;100.00;102137.13;6258360;28;20178;-72
2023/09/30 03:29:31;;;;;;;14.32;2.53;;;;;;;12.33;100.00;102131.13;6260281;28;20041;-72
2023/09/30 03:32:33;;;;;;;7.75;1.92;;;;;;;12.32;100.00;102139.09;6270773;28;20138;-72
2023/09/30 03:35:36;;;;;;;9.23;3.80;;;;;;;12.35;100.00;102138.97;6280085;28;20433;-72
2023/09/30 03:38:41;;;;;;;14.13;3.00;;;;;;;12.29;100.00;102132.16;6279195;28;20049;-72
2023/09/30 03:41:42;;;;;;;10.73;2.88;;;;;;;12.27;100.00;102138.41;6268576;28;20653;-72
2023/09/30 03:44:44;;;;;;;6.35;1.80;;;;;;;12.26;100.00;102139.31;6279736;28;20056;-72
2023/09/30 03:47:45;;;;;;;11.73;2.28;;;;;;;12.31;100.00;102138.25;6279773;28;20135;-72
2023/09/30 03:50:47;;;;;;;6.63;1.90;;;;;;;12.29;100.00;102134.78;6269435;28;20135;-72
2023/09/30 03:53:49;;;;;;;16.80;2.95;;;;;;;12.30;100.00;102140.91;6277966;28;20053;-72
2023/09/30 03:56:51;;;;;;;8.55;2.83;;;;;;;12.25;100.00;102132.31;6279591;28;20048;-72
2023/09/30 03:59:53;;;;;;;7.75;2.15;;;;;;;12.27;100.00;102126.09;6279169;28;20460;-74
2023/09/30 04:02:58;;;;;;;8.13;2.63;;;;;;;12.30;100.00;102122.47;6278631;28;20053;-74
2023/09/30 04:05:59;;;;;;;9.85;2.45;;;;;;;12.32;100.00;102128.56;6271167;28;20044;-74
2023/09/30 04:09:07;;;;;;;9.63;2.03;;;;;;;12.29;100.00;102133.94;6279244;28;20045;-72
2023/09/30 04:12:09;;;;;;;9.50;2.30;;;;;;;12.30;100.00;102133.88;6279469;28;20048;-72
2023/09/30 04:15:12;;;;;;;13.77;2.60;;;;;;;12.27;100.00;102139.28;6279346;28;20045;-72
2023/09/30 04:18:13;;;;;;;11.38;2.47;;;;;;;12.24;100.00;102136.75;6279331;28;20111;-72
2023/09/30 04:21:15;;;;;;;10.77;2.45;;;;;;;12.28;100.00;102140.13;6266039;28;20056;-72
2023/09/30 04:24:20;;;;;;;16.05;2.70;;;;;;;12.29;100.00;102136.56;6279004;28;20056;-72
2023/09/30 04:27:22;;;;;;;10.90;2.40;;;;;;;12.30;100.00;102144.41;6279152;28;20056;-72
2023/09/30 04:30:23;;;;;;;8.30;2.17;;;;;;;12.30;100.00;102143.56;6278587;28;20573;-72
2023/09/30 04:33:25;;;;;;;16.20;2.63;;;;;;;12.34;100.00;102151.28;6279170;28;20044;-72
2023/09/30 04:36:26;;;;;;;13.45;2.00;;;;;;;12.33;100.00;102154.00;6278806;28;20041;-72
2023/09/30 04:39:29;;;;;;;6.68;2.13;;;;;;;12.34;100.00;102150.44;6278404;28;20455;-72
2023/09/30 04:42:31;;;;;;;8.68;1.88;;;;;;;12.37;100.00;102152.97;6277956;28;20057;-72
2023/09/30 04:45:32;;;;;;;10.25;3.13;;;;;;;12.34;100.00;102156.56;6278578;28;20049;-72
2023/09/30 04:48:34;;;;;;;9.55;2.30;;;;;;;12.36;100.00;102148.59;6278358;28;20056;-72
2023/09/30 04:51:35;;;;;;;8.00;2.40;;;;;;;12.37;100.00;102147.69;6262546;28;20045;-72
2023/09/30 04:54:38;;;;;;;13.90;2.60;;;;;;;12.30;100.00;102151.47;6269964;28;20053;-72
2023/09/30 04:57:40;;;;;;;9.05;2.30;;;;;;;12.33;100.00;102146.09;6278062;28;20364;-72
2023/09/30 05:00:41;;;;;;;8.68;2.63;;;;;;;12.39;100.00;102151.97;6269188;28;20053;-73
2023/09/30 05:03:43;;;;;;;9.00;2.28;;;;;;;12.39;100.00;102145.84;6275291;28;20056;-72
2023/09/30 05:06:45;;;;;;;10.30;2.30;;;;;;;12.40;100.00;102145.78;6278030;28;20052;-72
2023/09/30 05:09:48;;;;;;;13.80;3.10;;;;;;;12.34;100.00;102159.19;6277682;28;20353;-72
2023/09/30 05:12:49;;;;;;;8.05;2.45;;;;;;;12.35;100.00;102154.78;6278055;28;20056;-72
2023/09/30 05:15:51;;;;;;;9.43;1.98;;;;;;;12.37;100.00;102160.88;6250123;28;20085;-72
2023/09/30 05:18:52;;;;;;;9.13;1.80;;;;;;;12.33;100.00;102149.56;6244959;28;20453;-72
2023/09/30 05:21:54;;;;;;;14.32;1.80;;;;;;;12.36;100.00;102153.88;6242796;28;20167;-72
2023/09/30 05:24:57;;;;;;;5.20;1.98;;;;;;;12.39;100.00;102157.25;6245892;28;20057;-71
2023/09/30 05:27:58;;;;;;;8.93;2.33;;;;;;;12.39;100.00;102153.75;6252928;28;20050;-74
2023/09/30 05:31:00;;;;;;;10.38;2.53;;;;;;;12.36;100.00;102156.53;6252345;28;20081;-72
2023/09/30 05:34:04;;;;;;;6.43;3.03;;;;;;;12.32;100.00;102168.09;6243886;28;20041;-72
2023/09/30 05:37:05;;;;;;;6.80;2.13;;;;;;;12.34;100.00;102175.00;6262411;28;20103;-72
2023/09/30 05:40:16;;;;;;;9.20;1.98;;;;;;;12.34;100.00;102168.88;6277053;28;20053;-72
2023/09/30 05:43:17;;;;;;;7.65;1.70;;;;;;;12.32;100.00;102178.63;6277190;28;20045;-72
2023/09/30 05:46:19;;;;;;;11.82;2.00;;;;;;;12.29;100.00;102184.00;6277018;28;20440;-74
2023/09/30 05:49:20;;;;;;;7.20;2.78;;;;;;;12.33;100.00;102188.25;6258089;28;20060;-71
2023/09/30 05:52:22;;;;;;;10.52;2.28;;;;;;;12.34;100.00;102189.97;6241155;28;20437;-73
2023/09/30 05:55:25;;;;;;;7.22;2.20;;;;;;;12.35;100.00;102192.56;6247540;28;20073;-72
2023/09/30 05:58:27;;;;;;;11.57;1.95;;;;;;;12.37;100.00;102197.78;6245174;28;20049;-72
2023/09/30 06:01:28;;;;;;;6.03;2.00;;;;;;;12.30;100.00;102205.03;6246991;28;20060;-72
2023/09/30 06:04:29;;;;;;;10.40;2.50;;;;;;;12.33;100.00;102204.06;6248626;28;20052;-72
2023/09/30 06:07:31;;;;;;;6.18;1.77;;;;;;;12.33;100.00;102212.84;6239031;28;20038;-72
2023/09/30 06:10:34;;;;;;;9.45;1.50;;;;;;;12.34;100.00;102217.19;6238877;28;20052;-72
2023/09/30 06:13:36;;;;;;;9.73;2.28;;;;;;;12.39;100.00;102224.94;6238320;28;20129;-72
2023/09/30 06:16:38;;;;;;;9.50;1.58;;;;;;;12.38;100.00;102226.72;6244702;28;20045;-73
2023/09/30 06:19:39;;;;;;;18.58;2.88;;;;;;;12.38;100.00;102225.84;6244878;28;20049;-72
2023/09/30 06:22:41;;;;;;;7.07;2.28;;;;;;;12.38;100.00;102231.13;6243022;28;20054;-72
2023/09/30 06:25:44;;;;;;;7.40;1.75;;;;;;;12.38;100.00;102225.84;6249765;28;20060;-72
2023/09/30 06:28:45;;;;;;;5.07;1.88;;;;;;;12.37;100.00;102234.69;6242178;28;20111;-72
2023/09/30 06:31:49;;;;;;;10.95;2.45;;;;;;;12.41;100.00;102223.97;6247116;28;20077;-72
2023/09/30 06:34:50;;;;;;;8.43;1.67;;;;;;;12.44;100.00;102230.88;6249556;28;20042;-74
2023/09/30 06:37:52;;;;;;;7.55;2.30;;;;;;;12.49;100.00;102228.06;6236501;28;20345;-72
2023/09/30 06:40:56;;;;;;;7.18;2.05;;;;;;;12.49;100.00;102226.31;6238164;28;20053;-72
2023/09/30 06:43:58;;;;;;;9.50;2.10;;;;;;;12.52;100.00;102227.97;6241822;28;20046;-74
2023/09/30 06:47:00;;;;;;;8.52;2.55;;;;;;;12.58;100.00;102238.28;6241939;28;20053;-71
2023/09/30 06:50:07;;;;;;;10.68;2.42;;;;;;;12.63;100.00;102252.19;6238242;28;20045;-72
2023/09/30 06:53:09;;;;;;;8.20;2.13;;;;;;;12.68;100.00;102245.81;6243885;28;20138;-72
2023/09/30 06:56:12;;;;;;;7.47;1.98;;;;;;;12.74;100.00;102236.78;6243418;28;20056;-73
2023/09/30 06:59:14;;;;;;;10.23;2.20;;;;;;;12.77;100.00;102243.75;6236842;28;20049;-71
2023/09/30 07:02:15;;;;;;;10.45;2.95;;;;;;;12.84;100.00;102253.13;6238903;28;20374;-71
2023/09/30 07:05:17;;;;;;;8.35;1.83;;;;;;;12.84;100.00;102242.56;6249237;28;20056;-71
2023/09/30 07:08:20;;;;;;;9.32;2.17;;;;;;;12.82;100.00;102245.28;6232742;28;20049;-72
2023/09/30 07:11:32;;;;;;;11.73;2.72;;;;;;;12.83;100.00;102248.78;6225639;28;20065;-73
2023/09/30 07:14:33;;;;;;;6.93;2.00;;;;;;;12.89;100.00;102261.72;6236074;28;20079;-71
2023/09/30 07:17:35;;;;;;;6.88;1.60;;;;;;;12.90;100.00;102266.09;6267154;28;20049;-72
2023/09/30 07:20:36;;;;;;;7.95;2.00;;;;;;;12.97;100.00;102271.97;6270790;28;20056;-72
2023/09/30 07:23:38;;;;;;;9.98;2.60;;;;;;;13.03;100.00;102266.44;6261452;28;20045;-72
2023/09/30 07:26:41;;;;;;;11.00;2.40;;;;;;;13.11;100.00;102269.66;6274938;28;20368;-72
2023/09/30 07:29:42;;;;;;;6.93;2.13;;;;;;;13.18;100.00;102276.41;6274768;28;20048;-72
2023/09/30 07:32:44;;;;;;;8.55;2.75;;;;;;;13.21;100.00;102281.56;6275166;28;20053;-72
2023/09/30 07:35:45;;;;;;;10.10;2.20;;;;;;;13.19;100.00;102284.28;6274984;28;20514;-73
2023/09/30 07:38:47;;;;;;;15.70;2.60;;;;;;;13.26;100.00;102287.53;6275114;28;20045;-72
2023/09/30 07:41:49;;;;;;;16.52;2.28;;;;;;;13.28;100.00;102288.34;6274742;28;20049;-72
2023/09/30 07:44:51;;;;;;;11.35;2.38;;;;;;;13.34;100.00;102282.81;6266985;28;20049;-72
2023/09/30 07:47:52;;;;;;;6.82;2.95;;;;;;;13.38;100.00;102284.41;6259825;28;20357;-72
2023/09/30 07:50:54;;;;;;;7.45;1.95;;;;;;;13.42;100.00;102299.22;6276392;23;20041;-72
2023/09/30 07:53:56;;;;;;;12.52;2.42;;;;;;;13.46;100.00;102294.69;6240359;28;20127;-75
2023/09/30 07:57:00;;;;;;;9.60;2.22;;;;;;;13.56;100.00;102298.66;6249988;28;20053;-75
2023/09/30 08:00:02;;;;;;;11.75;2.42;;;;;;;13.60;100.00;102300.25;6242904;28;20050;-75
2023/09/30 08:03:04;;;;;;;12.13;2.20;;;;;;;13.61;100.00;102303.75;6218617;28;20058;-78
2023/09/30 08:06:08;;;;;;;5.90;1.92;;;;;;;13.66;100.00;102307.06;6225867;28;20061;-75
2023/09/30 08:09:12;;;;;;;3.50;1.65;;;;;;;13.67;100.00;102309.66;6225016;28;20393;-74
2023/09/30 08:12:15;;;;;;;7.80;1.67;;;;;;;13.66;100.00;102310.56;6225758;28;20085;-74
2023/09/30 08:15:17;;;;;;;11.35;2.20;;;;;;;13.67;100.00;102309.66;6207145;28;20490;-75
2023/09/30 08:18:18;;;;;;;8.48;2.35;;;;;;;13.65;100.00;102308.84;6209253;28;20050;-74
2023/09/30 08:21:19;;;;;;;12.88;2.45;;;;;;;13.66;100.00;102318.50;6196007;28;20068;-74
2023/09/30 08:24:21;;;;;;;9.00;2.17;;;;;;;13.70;100.00;102312.16;6194799;28;20054;-74
2023/09/30 08:27:24;;;;;;;7.20;1.63;;;;;;;13.76;100.00;102316.31;6213636;28;20441;-74
2023/09/30 08:30:25;;;;;;;9.65;2.40;;;;;;;13.81;100.00;102324.09;6210977;28;20050;-75
2023/09/30 08:33:30;;;;;;;12.13;2.97;;;;;;;13.87;100.00;102324.69;6215519;28;20446;-75
2023/09/30 08:36:32;;;;;;;11.43;2.55;;;;;;;13.94;100.00;102323.50;6213443;28;20053;-75
2023/09/30 08:39:38;;;;;;;11.73;2.28;;;;;;;13.94;100.00;102327.91;6215661;28;20050;-75
2023/09/30 08:42:41;;;;;;;10.38;2.15;;;;;;;14.03;100.00;102337.25;6208824;28;20064;-74
2023/09/30 08:45:47;;;;;;;5.25;2.15;;;;;;;14.11;100.00;102337.78;6213526;28;20057;-75
2023/09/30 08:48:49;;;;;;;6.03;1.90;;;;;;;14.17;100.00;102334.84;6217878;28;20053;-75
2023/09/30 08:51:51;;;;;;;7.57;2.05;;;;;;;14.21;100.00;102334.66;6213417;28;20049;-74
2023/09/30 08:54:54;;;;;;;6.38;2.42;;;;;;;14.25;100.00;102334.53;6220347;28;20053;-72
2023/09/30 08:57:58;;;;;;;6.00;2.20;;;;;;;14.28;100.00;102335.28;6207614;28;20058;-73
2023/09/30 09:00:59;;;;;;;13.65;3.33;;;;;;;14.34;100.00;102339.44;6203328;28;20053;-72
2023/09/30 09:04:03;;;;;;;8.75;2.40;;;;;;;14.39;100.00;102329.50;6217263;28;20429;-73
2023/09/30 09:07:04;;;;;;;9.93;2.22;;;;;;;14.41;100.00;102340.91;6206548;28;20050;-81
2023/09/30 09:10:08;;;;;;;8.15;1.98;;;;;;;14.45;100.00;102340.69;6205362;28;20057;-74
2023/09/30 09:13:11;;;;;;;8.00;2.08;;;;;;;14.56;100.00;102340.25;6211264;28;20047;-71
2023/09/30 09:16:12;;;;;;;7.43;2.47;;;;;;;14.63;100.00;102330.25;6204192;28;20057;-73
2023/09/30 09:19:15;;;;;;;8.52;2.40;;;;;;;14.74;100.00;102338.56;6204086;28;20057;-72
2023/09/30 09:22:17;;;;;;;8.15;2.00;;;;;;;14.89;100.00;102340.50;6202621;28;20054;-74
2023/09/30 09:25:18;;;;;;;9.82;2.60;;;;;;;14.97;100.00;102338.34;6204320;28;20058;-73
2023/09/30 09:28:35;;;;;;;8.35;2.13;;;;;;;15.12;100.00;102323.53;6203187;28;20181;-73
2023/09/30 09:31:37;;;;;;;9.18;2.88;;;;;;;15.24;100.00;102322.09;6203828;28;20434;-73
2023/09/30 09:34:39;;;;;;;5.68;2.40;;;;;;;15.31;100.00;102327.97;6203774;28;20046;-72
2023/09/30 09:37:40;;;;;;;5.78;2.22;;;;;;;15.41;100.00;102329.25;6203989;28;20053;-72
2023/09/30 09:40:41;;;;;;;4.75;1.60;;;;;;;15.49;100.00;102335.03;6203433;28;20054;-72
2023/09/30 09:43:45;;;;;;;8.18;2.50;;;;;;;15.57;100.00;102329.34;6203589;28;20054;-73
2023/09/30 09:46:48;;;;;;;8.27;1.70;;;;;;;15.64;100.00;102323.72;6203484;28;20458;-72
2023/09/30 09:49:51;;;;;;;17.73;2.67;;;;;;;15.76;100.00;102322.25;6203127;28;20057;-72
2023/09/30 09:52:54;;;;;;;7.60;2.15;;;;;;;15.90;100.00;102330.38;6203289;28;20050;-73
2023/09/30 09:55:58;;;;;;;10.35;2.60;;;;;;;15.94;100.00;102333.72;6203281;28;20074;-72
2023/09/30 09:59:04;;;;;;;8.18;1.63;;;;;;;16.00;100.00;102333.41;6203145;28;20057;-72
2023/09/30 10:02:11;;;;;;;7.88;1.55;;;;;;;16.07;100.00;102326.84;6203360;28;20047;-73
2023/09/30 10:05:13;;;;;;;6.45;1.80;;;;;;;16.08;100.00;102320.63;6203147;28;20396;-72
2023/09/30 10:08:18;;;;;;;8.32;2.25;;;;;;;16.19;100.00;102317.41;6203098;28;20342;-72
2023/09/30 10:11:22;;;;;;;3.30;1.40;;;;;;;16.22;100.00;102318.13;6202827;28;20047;-73
2023/09/30 10:14:33;;;;;;;7.50;1.70;;;;;;;16.29;100.00;102318.66;6203090;28;20053;-73
2023/09/30 10:17:59;;;;;;;6.85;1.70;;;;;;;16.40;100.00;102320.75;6203109;28;20046;-72
2023/09/30 10:21:09;;;;;;;8.32;1.73;;;;;;;16.45;100.00;102330.19;6202466;28;20173;-73
2023/09/30 10:24:29;;;;;;;4.57;1.35;;;;;;;16.51;100.00;102323.69;6202924;28;20058;-71
2023/09/30 10:27:32;;;;;;;8.20;1.55;;;;;;;16.52;100.00;102316.56;6202482;28;20050;-72
2023/09/30 10:30:35;;;;;;;7.35;1.85;;;;;;;16.59;100.00;102326.78;6202446;28;20058;-74
2023/09/30 10:33:37;;;;;;;3.28;1.30;;;;;;;16.70;100.00;102334.16;6202539;28;20050;-70
2023/09/30 10:36:40;;;;;;;6.53;1.10;;;;;;;16.77;100.00;102346.22;6202595;28;20050;-71
2023/09/30 10:39:56;;;;;;;8.45;1.63;;;;;;;16.88;100.00;102350.94;6201624;28;20401;-72
2023/09/30 10:42:57;;;;;;;4.40;1.23;;;;;;;16.92;100.00;102317.97;6197452;28;20112;-71
2023/09/30 10:46:00;;;;;;;8.55;1.73;;;;;;;16.97;100.00;102323.88;6205457;28;20050;-72
2023/09/30 10:49:31;;;;;;;2.03;1.10;;;;;;;17.02;100.00;102328.94;6210305;28;20050;-71
2023/09/30 10:52:33;;;;;;;5.38;1.00;;;;;;;17.09;100.00;102331.19;6195481;28;20140;-72
2023/09/30 10:55:35;;;;;;;2.85;1.10;;;;;;;17.13;100.00;102335.38;6199003;28;20052;-71
2023/09/30 10:58:40;;;;;;;7.28;1.30;;;;;;;17.13;100.00;102331.88;6212930;28;20046;-72
2023/09/30 11:01:43;;;;;;;2.97;1.27;;;;;;;17.03;100.00;102328.84;6206468;28;20365;-72
2023/09/30 11:04:48;;;;;;;7.57;1.30;;;;;;;17.01;100.00;102324.56;6215547;28;20045;-72
2023/09/30 11:07:50;;;;;;;3.60;0.80;;;;;;;16.99;100.00;102327.31;6202722;28;20042;-72
2023/09/30 11:10:53;;;;;;;3.65;1.10;;;;;;;17.08;100.00;102331.25;6213493;28;20054;-72
2023/09/30 11:13:54;;;;;;;5.40;1.13;;;;;;;17.21;100.00;102319.88;6206647;28;20133;-72
2023/09/30 11:16:59;;;;;;;7.55;1.25;;;;;;;17.24;100.00;102318.84;6210583;28;20054;-72
2023/09/30 11:20:00;;;;;;;4.63;0.90;;;;;;;17.24;100.00;102319.69;6216259;28;20099;-73
2023/09/30 11:23:02;;;;;;;2.08;1.00;;;;;;;17.30;100.00;102322.94;6217686;28;20050;-73
2023/09/30 11:26:04;;;;;;;2.58;1.02;;;;;;;17.28;100.00;102320.38;6226122;28;20057;-72
2023/09/30 11:29:08;;;;;;;5.60;1.00;;;;;;;17.22;100.00;102326.06;6225596;28;20053;-73
2023/09/30 11:32:26;;;;;;;8.52;1.20;;;;;;;17.16;100.00;102318.41;6226046;28;20046;-73
2023/09/30 11:35:28;;;;;;;7.63;1.27;;;;;;;17.18;100.00;102319.19;6226068;28;20141;-72
2023/09/30 11:38:29;;;;;;;9.38;1.85;;;;;;;17.32;100.00;102321.91;6225870;28;20057;-73
2023/09/30 11:41:37;;;;;;;4.60;1.08;;;;;;;17.57;100.00;102318.72;6225703;28;20053;-72
2023/09/30 11:44:46;;;;;;;4.03;1.00;;;;;;;17.90;100.00;102317.75;6225874;28;20132;-71
2023/09/30 11:47:49;;;;;;;4.68;1.25;;;;;;;18.02;100.00;102324.97;6225647;28;20168;-72
2023/09/30 11:50:52;;;;;;;2.35;1.10;;;;;;;17.84;100.00;102331.38;6225255;28;20357;-72
2023/09/30 11:53:55;;;;;;;2.03;0.98;;;;;;;17.65;100.00;102328.91;6229848;28;20049;-71
2023/09/30 11:56:59;;;;;;;3.72;1.10;;;;;;;17.80;100.00;102324.53;6230394;28;20050;-70
2023/09/30 12:00:00;;;;;;;4.18;0.80;;;;;;;18.13;100.00;102337.66;6230272;28;20049;-73
2023/09/30 12:03:04;;;;;;;8.50;1.20;;;;;;;18.14;100.00;102324.25;6230093;28;20326;-73
2023/09/30 12:06:05;;;;;;;4.10;1.05;;;;;;;17.93;100.00;102317.53;6215597;28;20050;-73
2023/09/30 12:09:09;;;;;;;7.63;1.40;;;;;;;17.83;100.00;102305.75;6220820;28;20053;-73
2023/09/30 12:12:10;;;;;;;4.38;1.05;;;;;;;17.87;100.00;102301.94;6207556;28;20057;-74
2023/09/30 12:15:13;;;;;;;3.08;1.40;;;;;;;18.14;100.00;102313.59;6199162;28;20054;-75
2023/09/30 12:18:18;;;;;;;3.85;1.42;;;;;;;18.40;100.00;102304.03;6210472;28;20050;-75
2023/09/30 12:21:20;;;;;;;3.38;1.30;;;;;;;18.42;100.00;102296.81;6211185;28;20180;-76
2023/09/30 12:24:23;;;;;;;5.40;1.13;;;;;;;18.65;100.00;102292.72;6211572;28;20050;-76
2023/09/30 12:27:25;;;;;;;6.63;1.63;;;;;;;18.66;100.00;102285.56;6213461;28;20046;-76
2023/09/30 12:30:26;;;;;;;6.70;1.10;;;;;;;18.86;100.00;102279.03;6215117;28;20054;-76
2023/09/30 12:33:30;;;;;;;3.65;1.00;;;;;;;18.99;100.00;102274.63;6217581;28;20054;-76
2023/09/30 12:36:32;;;;;;;2.95;1.67;;;;;;;19.09;100.00;102277.56;6211421;28;20141;-76
2023/09/30 12:39:34;;;;;;;2.25;0.88;;;;;;;19.14;100.00;102275.44;6209407;28;20184;-75
2023/09/30 12:42:35;;;;;;;1.80;1.08;;;;;;;19.29;100.00;102276.25;6215331;28;20120;-75
2023/09/30 12:45:38;;;;;;;6.70;1.42;;;;;;;19.62;100.00;102274.06;6228259;28;20057;-75
2023/09/30 12:48:41;;;;;;;2.35;1.10;;;;;;;19.64;100.00;102271.28;6207645;28;20338;-76
2023/09/30 12:51:43;;;;;;;5.30;1.40;;;;;;;19.57;100.00;102264.59;6212646;28;20062;-75
2023/09/30 12:54:44;;;;;;;2.78;1.17;;;;;;;19.54;100.00;102268.34;6208137;28;20470;-75
2023/09/30 12:57:46;;;;;;;6.70;1.30;;;;;;;19.42;100.00;102263.81;6204564;28;20050;-77
2023/09/30 13:00:47;;;;;;;4.75;1.27;;;;;;;19.08;100.00;102260.72;6204238;28;20050;-76
2023/09/30 13:03:51;;;;;;;4.13;1.17;;;;;;;18.80;100.00;102263.44;6204506;28;20066;-76
2023/09/30 13:06:52;;;;;;;4.13;0.90;;;;;;;18.64;100.00;102255.53;6204459;28;20061;-76
2023/09/30 13:09:54;;;;;;;3.22;1.00;;;;;;;18.40;100.00;102266.78;6204136;28;20050;-76
2023/09/30 13:12:55;;;;;;;4.85;1.20;;;;;;;18.71;100.00;102257.75;6205237;28;20046;-76
2023/09/30 13:15:56;;;;;;;3.30;1.33;;;;;;;18.92;100.00;102259.97;6204066;28;20503;-75
2023/09/30 13:18:59;;;;;;;4.88;0.95;;;;;;;19.07;100.00;102269.63;6204286;28;20050;-75
2023/09/30 13:22:00;;;;;;;7.88;1.65;;;;;;;19.34;100.00;102266.97;6207475;28;20046;-75
2023/09/30 13:25:02;;;;;;;4.55;1.52;;;;;;;19.07;100.00;102264.31;6212369;28;20057;-76
2023/09/30 13:28:04;;;;;;;2.30;0.90;;;;;;;19.44;100.00;102259.22;6211922;28;20523;-75
2023/09/30 13:31:05;;;;;;;1.65;0.80;;;;;;;19.73;100.00;102259.97;6208642;28;20057;-75
2023/09/30 13:34:08;;;;;;;2.67;1.02;;;;;;;19.90;100.00;102266.84;6225882;28;20468;-76
2023/09/30 13:37:10;;;;;;;3.42;1.30;;;;;;;19.89;100.00;102255.28;6217732;28;20061;-74
2023/09/30 13:40:13;;;;;;;2.55;0.93;;;;;;;19.71;100.00;102253.88;6210813;28;20053;-73
2023/09/30 13:43:14;;;;;;;2.95;0.88;;;;;;;20.16;100.00;102241.00;6203262;28;20050;-74
2023/09/30 13:46:16;;;;;;;4.82;0.95;;;;;;;20.35;100.00;102254.78;6219277;28;20046;-75
2023/09/30 13:49:18;;;;;;;2.67;1.10;;;;;;;20.48;100.00;102252.09;6219872;28;20077;-76
2023/09/30 13:52:20;;;;;;;3.97;0.95;;;;;;;20.23;100.00;102240.47;6227722;28;20054;-73
2023/09/30 13:55:21;;;;;;;3.05;1.08;;;;;;;20.35;100.00;102238.75;6215207;28;20050;-73
2023/09/30 13:58:23;;;;;;;3.67;0.88;;;;;;;20.15;100.00;102231.28;6227815;28;20042;-73